Time;durP1;ratioP1;P1;durP2;ratioP2;P2;SDS_P1;SDS_P2;PMS_P1;PMS_P2;Temp;Humidity;BMP_temperature;BMP_pressure;BME280_temperature;BME280_humidity;BME280_pressure;Samples;Min_cycle;Max_cycle;Signal;HPM_P1;HPM_P2
2024/03/16 00:00:57;;;;;;;10.67;10.10;;;9.70;99.90;;;;;;4928625;29;20214;-77
2024/03/16 00:03:24;;;;;;;10.70;10.10;;;9.70;99.90;;;;;;4966479;28;20224;-77
2024/03/16 00:05:51;;;;;;;10.80;10.20;;;9.70;99.90;;;;;;4951713;28;20273;-77
2024/03/16 00:08:18;;;;;;;10.70;10.10;;;9.70;99.90;;;;;;4953905;28;20208;-77
2024/03/16 00:10:45;;;;;;;10.40;9.90;;;9.70;99.90;;;;;;4935068;28;20303;-77
2024/03/16 00:13:12;;;;;;;11.07;10.40;;;9.70;99.90;;;;;;4954636;28;20193;-77
2024/03/16 00:15:39;;;;;;;10.67;10.07;;;9.60;99.90;;;;;;4939299;28;20556;-77
2024/03/16 00:18:06;;;;;;;10.70;10.10;;;9.60;99.90;;;;;;4943917;28;20200;-77
2024/03/16 00:20:33;;;;;;;10.90;10.30;;;9.60;99.90;;;;;;4961700;28;20199;-76
2024/03/16 00:23:01;;;;;;;11.03;10.43;;;9.60;99.90;;;;;;4944096;29;20207;-77
2024/03/16 00:25:27;;;;;;;11.00;10.40;;;9.60;99.90;;;;;;4959319;28;20208;-78
2024/03/16 00:27:55;;;;;;;10.90;10.30;;;9.60;99.90;;;;;;4944731;28;20202;-77
2024/03/16 00:30:23;;;;;;;11.13;10.50;;;9.60;99.90;;;;;;4953809;28;20665;-77
2024/03/16 00:32:51;;;;;;;11.07;10.47;;;9.60;99.90;;;;;;4940329;29;20215;-76
2024/03/16 00:35:18;;;;;;;11.07;10.37;;;9.60;99.90;;;;;;4930000;28;20257;-76
2024/03/16 00:37:46;;;;;;;11.27;10.57;;;9.60;99.90;;;;;;4953516;28;20202;-77
2024/03/16 00:40:15;;;;;;;10.93;10.33;;;9.50;99.90;;;;;;4946874;28;20192;-77
2024/03/16 00:42:42;;;;;;;10.80;10.20;;;9.50;99.90;;;;;;4924519;28;20624;-77
2024/03/16 00:45:09;;;;;;;11.00;10.37;;;9.50;99.90;;;;;;4952935;28;20203;-77
2024/03/16 00:47:36;;;;;;;11.00;10.40;;;9.40;99.90;;;;;;4944276;28;20670;-77
2024/03/16 00:50:03;;;;;;;10.93;10.33;;;9.30;99.90;;;;;;4945449;29;20198;-77
2024/03/16 00:52:30;;;;;;;10.90;10.30;;;9.30;99.90;;;;;;4964800;28;20210;-77
2024/03/16 00:54:57;;;;;;;11.20;10.60;;;9.30;99.90;;;;;;4953407;28;20201;-77
2024/03/16 00:57:24;;;;;;;11.20;10.60;;;9.30;99.90;;;;;;4933371;28;20628;-77
2024/03/16 00:59:51;;;;;;;11.43;10.83;;;9.20;99.90;;;;;;4939917;28;20199;-77
2024/03/16 01:02:18;;;;;;;11.40;10.80;;;9.20;99.90;;;;;;4948618;28;20716;-77
2024/03/16 01:04:45;;;;;;;11.37;10.77;;;9.20;99.90;;;;;;4933195;28;20770;-77
2024/03/16 01:07:12;;;;;;;11.30;10.70;;;9.10;99.90;;;;;;4946375;28;20556;-77
2024/03/16 01:09:39;;;;;;;11.60;10.90;;;9.10;99.90;;;;;;4948598;28;20198;-77
2024/03/16 01:12:06;;;;;;;11.50;10.90;;;9.10;99.90;;;;;;4935388;28;20234;-77
2024/03/16 01:14:33;;;;;;;11.23;10.63;;;9.10;99.90;;;;;;4949883;28;20198;-76
2024/03/16 01:17:00;;;;;;;11.53;10.83;;;9.20;99.90;;;;;;4933141;28;20634;-77
2024/03/16 01:19:27;;;;;;;11.57;10.87;;;9.20;99.90;;;;;;4939832;28;20198;-77
2024/03/16 01:21:54;;;;;;;11.20;10.60;;;9.20;99.90;;;;;;4947765;28;20229;-77
2024/03/16 01:24:20;;;;;;;11.53;10.83;;;9.20;99.90;;;;;;4936287;28;20226;-76
2024/03/16 01:26:47;;;;;;;11.20;10.60;;;9.30;99.90;;;;;;4949107;28;20238;-77
2024/03/16 01:29:15;;;;;;;11.67;11.00;;;9.20;99.90;;;;;;4938790;28;20194;-77
2024/03/16 01:31:42;;;;;;;11.30;10.70;;;9.30;99.90;;;;;;4944064;28;20214;-77
2024/03/16 01:34:09;;;;;;;11.83;11.13;;;9.20;99.90;;;;;;4944164;28;20207;-77
2024/03/16 01:36:36;;;;;;;11.40;10.80;;;9.20;99.90;;;;;;4942613;28;20202;-77
2024/03/16 01:39:05;;;;;;;11.60;10.97;;;9.20;99.90;;;;;;4925373;28;20222;-77
2024/03/16 01:41:32;;;;;;;11.37;10.77;;;9.20;99.90;;;;;;4934747;28;20234;-77
2024/03/16 01:44:02;;;;;;;11.43;10.83;;;9.10;99.90;;;;;;4932593;28;20217;-77
2024/03/16 01:46:29;;;;;;;11.43;10.83;;;9.20;99.90;;;;;;4950034;28;20232;-77
2024/03/16 01:48:56;;;;;;;11.43;10.77;;;9.20;99.90;;;;;;4949730;28;20194;-77
2024/03/16 01:51:23;;;;;;;11.40;10.80;;;9.10;99.90;;;;;;4947999;28;20751;-77
2024/03/16 01:53:50;;;;;;;11.50;10.90;;;9.10;99.90;;;;;;4947690;28;20226;-77
2024/03/16 01:56:17;;;;;;;11.33;10.70;;;9.10;99.90;;;;;;4947837;28;20201;-77
2024/03/16 01:58:45;;;;;;;11.33;10.73;;;9.10;99.90;;;;;;4948408;28;20564;-77
2024/03/16 02:01:13;;;;;;;11.53;10.93;;;9.00;99.90;;;;;;4951995;28;20214;-77
2024/03/16 02:03:40;;;;;;;11.20;10.60;;;9.00;99.90;;;;;;4933300;28;20303;-77
2024/03/16 02:06:07;;;;;;;11.27;10.67;;;9.00;99.90;;;;;;4937890;28;20731;-77
2024/03/16 02:08:34;;;;;;;11.40;10.80;;;8.90;99.90;;;;;;4949469;28;20263;-77
2024/03/16 02:11:01;;;;;;;11.80;11.10;;;8.90;99.90;;;;;;4952456;28;20229;-77
2024/03/16 02:13:28;;;;;;;11.40;10.80;;;8.90;99.90;;;;;;4936919;28;20676;-77
2024/03/16 02:15:55;;;;;;;11.83;11.10;;;8.90;99.90;;;;;;4948436;28;20203;-76
2024/03/16 02:18:22;;;;;;;11.57;10.97;;;8.90;99.90;;;;;;4945320;28;20202;-77
2024/03/16 02:20:49;;;;;;;11.67;11.00;;;8.90;99.90;;;;;;4958400;28;20662;-77
2024/03/16 02:23:16;;;;;;;11.70;11.10;;;8.90;99.90;;;;;;4948046;28;20222;-77
2024/03/16 02:25:44;;;;;;;11.17;10.57;;;8.90;99.90;;;;;;4936018;28;20198;-77
2024/03/16 02:28:11;;;;;;;11.87;11.07;;;8.90;99.90;;;;;;4928329;29;20196;-77
2024/03/16 02:30:38;;;;;;;11.77;11.10;;;8.80;99.90;;;;;;4950493;28;20217;-77
2024/03/16 02:33:07;;;;;;;12.57;11.80;;;8.80;99.90;;;;;;4943702;28;20225;-77
2024/03/16 02:35:34;;;;;;;11.93;11.33;;;8.70;99.90;;;;;;4958059;28;20281;-77
2024/03/16 02:38:01;;;;;;;11.60;11.00;;;8.60;99.90;;;;;;4953634;28;20221;-77
2024/03/16 02:40:28;;;;;;;11.90;11.30;;;8.60;99.90;;;;;;4948781;28;20222;-77
2024/03/16 02:42:55;;;;;;;11.77;11.07;;;8.60;99.90;;;;;;4935854;28;20265;-77
2024/03/16 02:45:22;;;;;;;11.70;11.00;;;8.60;99.90;;;;;;4933274;28;20218;-77
2024/03/16 02:47:48;;;;;;;11.60;11.00;;;8.60;99.90;;;;;;4942188;28;20606;-77
2024/03/16 02:50:15;;;;;;;12.63;11.53;;;8.60;99.90;;;;;;4934022;29;20202;-76
2024/03/16 02:52:42;;;;;;;11.70;11.10;;;8.60;99.90;;;;;;4950011;28;20228;-77
2024/03/16 02:55:10;;;;;;;11.40;10.80;;;8.60;99.90;;;;;;4949804;29;20191;-76
2024/03/16 02:57:37;;;;;;;11.80;10.87;;;8.60;99.90;;;;;;4947556;28;20266;-77
2024/03/16 03:00:07;;;;;;;11.47;10.87;;;8.70;99.90;;;;;;4943311;28;20209;-77
2024/03/16 03:02:34;;;;;;;11.73;11.13;;;8.70;99.90;;;;;;4934885;28;20242;-76
2024/03/16 03:05:01;;;;;;;11.50;10.90;;;8.70;99.90;;;;;;4940954;28;20229;-77
2024/03/16 03:07:28;;;;;;;11.70;11.10;;;8.70;99.90;;;;;;4949186;28;20206;-76
2024/03/16 03:09:56;;;;;;;11.57;10.97;;;8.80;99.90;;;;;;4959654;28;20201;-77
2024/03/16 03:12:24;;;;;;;11.40;10.80;;;8.80;99.90;;;;;;4950030;28;20629;-77
2024/03/16 03:14:51;;;;;;;10.80;10.20;;;8.90;99.90;;;;;;4959815;28;20198;-77
2024/03/16 03:17:18;;;;;;;10.80;10.20;;;8.90;99.90;;;;;;4935804;28;20214;-77
2024/03/16 03:19:45;;;;;;;10.60;10.03;;;8.90;99.90;;;;;;4947361;28;20191;-77
2024/03/16 03:22:12;;;;;;;10.93;10.33;;;8.90;99.90;;;;;;4950745;28;20229;-76
2024/03/16 03:24:39;;;;;;;11.30;10.60;;;8.90;99.90;;;;;;4933505;28;20343;-77
2024/03/16 03:27:06;;;;;;;11.13;10.53;;;8.90;99.90;;;;;;4957243;28;20201;-78
2024/03/16 03:29:33;;;;;;;11.03;10.43;;;8.90;99.90;;;;;;4925671;28;20210;-77
2024/03/16 03:32:00;;;;;;;11.20;10.50;;;8.90;99.90;;;;;;4954443;28;20633;-77
2024/03/16 03:34:27;;;;;;;11.20;10.50;;;8.90;99.90;;;;;;4938762;28;20229;-77
2024/03/16 03:36:54;;;;;;;10.97;10.37;;;8.80;99.90;;;;;;4955753;28;20254;-77
2024/03/16 03:39:21;;;;;;;11.10;10.50;;;8.80;99.90;;;;;;4958863;28;20199;-77
2024/03/16 03:41:48;;;;;;;10.90;10.30;;;8.80;99.90;;;;;;4953784;28;20658;-76
2024/03/16 03:44:23;;;;;;;11.17;10.50;;;8.80;99.90;;;;;;4967560;28;20217;-77
2024/03/16 03:46:50;;;;;;;11.00;10.40;;;8.80;99.90;;;;;;4934552;28;20194;-77
2024/03/16 03:49:28;;;;;;;11.30;10.60;;;8.80;99.90;;;;;;4944415;28;20423;-77
2024/03/16 03:51:57;;;;;;;11.13;10.53;;;8.90;99.90;;;;;;4936130;28;20225;-77
2024/03/16 03:54:23;;;;;;;11.60;10.90;;;8.90;99.90;;;;;;4950550;28;20201;-77
2024/03/16 03:56:50;;;;;;;11.73;10.97;;;8.90;99.90;;;;;;4944059;28;20573;-76
2024/03/16 03:59:17;;;;;;;11.30;10.70;;;8.90;99.90;;;;;;4959947;28;20684;-77
2024/03/16 04:01:44;;;;;;;11.17;10.57;;;8.90;99.90;;;;;;4957459;28;20254;-77
2024/03/16 04:04:11;;;;;;;11.33;10.63;;;8.90;99.90;;;;;;4950218;28;20210;-77
2024/03/16 04:06:37;;;;;;;11.07;10.47;;;8.90;99.90;;;;;;4937042;28;20689;-77
2024/03/16 04:09:05;;;;;;;10.30;9.80;;;8.90;99.90;;;;;;4943449;28;20197;-77
2024/03/16 04:11:32;;;;;;;10.67;9.97;;;9.00;99.90;;;;;;4938036;28;20797;-76
2024/03/16 04:13:59;;;;;;;10.80;10.20;;;9.00;99.90;;;;;;4943313;28;20228;-77
2024/03/16 04:16:26;;;;;;;10.30;9.70;;;9.10;99.90;;;;;;4938617;28;20281;-76
2024/03/16 04:18:52;;;;;;;10.40;9.80;;;9.10;99.90;;;;;;4930285;28;20203;-76
2024/03/16 04:21:19;;;;;;;10.70;10.10;;;9.10;99.90;;;;;;4928068;29;20317;-76
2024/03/16 04:23:48;;;;;;;10.90;10.20;;;9.20;99.90;;;;;;4950608;28;20224;-76
2024/03/16 04:26:15;;;;;;;10.80;10.10;;;9.20;99.90;;;;;;4937390;28;20211;-77
2024/03/16 04:28:42;;;;;;;10.80;10.20;;;9.20;99.90;;;;;;4934012;28;20202;-77
2024/03/16 04:31:09;;;;;;;10.73;10.07;;;9.20;99.90;;;;;;4915662;29;20251;-77
2024/03/16 04:33:35;;;;;;;11.00;10.33;;;9.30;99.90;;;;;;4937487;28;20206;-77
2024/03/16 04:36:02;;;;;;;10.60;9.90;;;9.30;99.90;;;;;;4937684;29;20617;-76
2024/03/16 04:38:29;;;;;;;10.70;10.00;;;9.40;99.90;;;;;;4919511;28;20210;-77
2024/03/16 04:40:56;;;;;;;10.70;10.00;;;9.40;99.90;;;;;;4910590;28;20231;-77
2024/03/16 04:43:24;;;;;;;10.80;10.10;;;9.50;99.90;;;;;;4939268;28;20203;-77
2024/03/16 04:45:51;;;;;;;10.70;10.00;;;9.50;99.90;;;;;;4942704;28;20207;-77
2024/03/16 04:48:18;;;;;;;11.10;10.40;;;9.50;99.90;;;;;;4935998;28;20227;-77
2024/03/16 04:50:45;;;;;;;5.83;5.53;;;9.60;99.90;;;;;;4933261;28;20210;-76
2024/03/16 04:53:12;;;;;;;2.40;2.30;;;9.60;99.90;;;;;;4954024;28;20244;-76
2024/03/16 04:55:40;;;;;;;4.53;4.13;;;9.70;99.90;;;;;;4945962;28;20200;-77
2024/03/16 04:58:07;;;;;;;7.10;6.60;;;9.70;99.90;;;;;;4937815;28;20237;-77
2024/03/16 05:00:35;;;;;;;9.73;9.23;;;9.70;99.90;;;;;;4935476;28;20207;-77
2024/03/16 05:03:02;;;;;;;7.83;7.43;;;9.70;99.90;;;;;;4949539;28;20590;-77
2024/03/16 05:05:29;;;;;;;11.37;10.67;;;9.80;99.90;;;;;;4937111;28;20236;-77
2024/03/16 05:07:56;;;;;;;11.00;10.37;;;9.80;99.90;;;;;;4947254;28;20203;-77
2024/03/16 05:10:24;;;;;;;4.10;3.90;;;9.80;99.90;;;;;;4944102;28;20747;-77
2024/03/16 05:12:51;;;;;;;8.63;8.03;;;9.80;99.90;;;;;;4946366;28;20231;-76
2024/03/16 05:15:18;;;;;;;5.57;5.27;;;9.80;99.90;;;;;;4949424;28;20250;-77
2024/03/16 05:17:45;;;;;;;5.40;4.93;;;9.80;99.90;;;;;;4928846;28;20253;-77
2024/03/16 05:20:12;;;;;;;5.00;4.63;;;9.80;99.90;;;;;;4933838;28;20781;-77
2024/03/16 05:22:39;;;;;;;12.33;11.57;;;9.80;99.90;;;;;;4943950;28;20627;-76
2024/03/16 05:25:06;;;;;;;6.87;6.47;;;9.70;99.90;;;;;;4933270;29;20216;-76
2024/03/16 05:27:35;;;;;;;7.47;7.07;;;9.70;99.90;;;;;;4933842;29;20302;-77
2024/03/16 05:30:04;;;;;;;4.57;4.30;;;9.60;99.90;;;;;;4921303;29;20697;-79
2024/03/16 05:32:31;;;;;;;6.63;6.23;;;9.60;99.90;;;;;;4966477;28;20219;-76
2024/03/16 05:34:58;;;;;;;11.50;10.80;;;9.50;99.90;;;;;;4951187;28;20284;-76
2024/03/16 05:37:25;;;;;;;10.67;10.07;;;9.50;99.90;;;;;;4953926;28;20194;-77
2024/03/16 05:39:52;;;;;;;10.60;10.00;;;9.50;99.90;;;;;;4938534;28;20247;-76
2024/03/16 05:42:19;;;;;;;10.60;10.00;;;9.50;99.90;;;;;;4951894;28;20309;-77
2024/03/16 05:44:46;;;;;;;10.93;10.33;;;9.50;99.90;;;;;;4936883;28;20218;-77
2024/03/16 05:47:13;;;;;;;10.57;9.93;;;9.50;99.90;;;;;;4941693;28;20207;-77
2024/03/16 05:49:40;;;;;;;9.83;9.23;;;9.50;99.90;;;;;;4931648;28;20226;-77
2024/03/16 05:52:07;;;;;;;10.70;10.00;;;9.50;99.90;;;;;;4962977;28;20705;-77
2024/03/16 05:54:34;;;;;;;11.20;10.60;;;9.50;99.90;;;;;;4929692;29;20646;-77
2024/03/16 05:57:03;;;;;;;10.33;9.73;;;9.50;99.90;;;;;;4929106;28;20604;-77
2024/03/16 05:59:31;;;;;;;10.50;9.90;;;9.50;99.90;;;;;;4935628;29;20207;-77
2024/03/16 06:01:58;;;;;;;10.07;9.57;;;9.50;99.90;;;;;;4947842;28;20237;-79
2024/03/16 06:04:25;;;;;;;11.07;10.47;;;9.50;99.90;;;;;;4926243;29;20222;-78
2024/03/16 06:06:52;;;;;;;10.90;10.30;;;9.50;99.90;;;;;;4963764;28;20210;-77
2024/03/16 06:09:19;;;;;;;9.67;9.13;;;9.50;99.90;;;;;;4953805;28;20226;-77
2024/03/16 06:11:46;;;;;;;2.90;2.80;;;9.60;99.90;;;;;;4926235;28;20230;-78
2024/03/16 06:14:13;;;;;;;2.90;2.80;;;9.50;99.90;;;;;;4927319;29;20199;-77
2024/03/16 06:16:40;;;;;;;3.00;2.80;;;9.60;99.90;;;;;;4943426;28;20717;-77
2024/03/16 06:19:07;;;;;;;2.80;2.70;;;9.60;99.90;;;;;;4947317;29;20566;-77
2024/03/16 06:21:34;;;;;;;3.07;2.80;;;9.60;99.90;;;;;;4939335;28;20301;-77
2024/03/16 06:24:03;;;;;;;3.03;2.83;;;9.60;99.90;;;;;;4948908;28;20234;-77
2024/03/16 06:26:32;;;;;;;3.30;2.83;;;9.60;99.90;;;;;;4953454;28;20215;-77
2024/03/16 06:29:06;;;;;;;3.10;2.90;;;9.60;99.90;;;;;;4970262;28;20283;-77
2024/03/16 06:31:35;;;;;;;2.97;2.77;;;9.60;99.90;;;;;;4934227;29;20223;-78
2024/03/16 06:34:04;;;;;;;3.27;2.90;;;9.60;99.90;;;;;;4947506;28;20210;-77
2024/03/16 06:36:32;;;;;;;5.80;5.50;;;9.60;99.90;;;;;;4933058;28;20642;-77
2024/03/16 06:39:00;;;;;;;5.90;5.50;;;9.70;99.90;;;;;;4945422;28;20213;-77
2024/03/16 06:41:27;;;;;;;5.90;5.60;;;9.70;99.90;;;;;;4944188;28;20583;-78
2024/03/16 06:43:54;;;;;;;6.20;5.80;;;9.70;99.90;;;;;;4947804;28;20197;-78
2024/03/16 06:46:22;;;;;;;5.30;4.90;;;9.80;99.90;;;;;;4949966;28;20202;-78
2024/03/16 06:48:49;;;;;;;5.03;4.67;;;9.90;99.90;;;;;;4932172;28;20203;-77
2024/03/16 06:51:17;;;;;;;5.30;5.00;;;10.00;99.90;;;;;;4936798;28;20367;-77
2024/03/16 06:53:44;;;;;;;5.97;5.57;;;10.10;99.90;;;;;;4936270;28;20200;-78
2024/03/16 06:56:13;;;;;;;9.90;9.13;;;10.10;99.90;;;;;;4941113;28;20259;-77
2024/03/16 06:58:40;;;;;;;5.37;4.97;;;10.20;99.90;;;;;;4941105;29;20266;-77
2024/03/16 07:01:11;;;;;;;6.20;5.80;;;10.30;99.90;;;;;;4932234;28;20680;-77
2024/03/16 07:03:39;;;;;;;5.90;5.40;;;10.40;99.90;;;;;;4942262;28;20310;-83
2024/03/16 07:06:08;;;;;;;5.47;5.07;;;10.60;99.90;;;;;;4931099;28;20236;-80
2024/03/16 07:08:35;;;;;;;8.10;7.70;;;10.90;99.90;;;;;;4972474;28;20225;-77
2024/03/16 07:11:11;;;;;;;8.97;8.37;;;11.20;99.90;;;;;;4956103;28;20221;-80
2024/03/16 07:13:41;;;;;;;5.40;4.67;;;11.50;99.90;;;;;;4940350;29;20295;-78
2024/03/16 07:16:13;;;;;;;4.33;4.00;;;11.60;99.90;;;;;;4950070;28;20724;-78
2024/03/16 07:18:40;;;;;;;11.33;10.47;;;11.60;99.90;;;;;;4930753;29;20208;-79
2024/03/16 07:21:07;;;;;;;4.90;4.60;;;11.50;99.90;;;;;;4957313;28;20221;-78
2024/03/16 07:23:34;;;;;;;5.33;4.90;;;11.50;99.90;;;;;;4929194;29;20233;-78
2024/03/16 07:26:01;;;;;;;5.00;4.70;;;11.40;99.90;;;;;;4971918;28;20708;-78
2024/03/16 07:28:27;;;;;;;5.23;4.73;;;11.40;99.90;;;;;;4943738;28;20210;-79
2024/03/16 07:30:56;;;;;;;5.23;4.80;;;11.40;99.90;;;;;;4938961;28;20203;-78
2024/03/16 07:33:23;;;;;;;5.90;5.30;;;11.40;99.90;;;;;;4929565;28;20234;-79
2024/03/16 07:35:51;;;;;;;5.70;5.20;;;11.40;99.90;;;;;;4939651;28;20683;-79
2024/03/16 07:38:17;;;;;;;5.60;5.20;;;11.40;99.90;;;;;;4944771;28;20202;-79
2024/03/16 07:40:44;;;;;;;5.10;4.70;;;11.40;99.90;;;;;;4938420;28;20265;-79
2024/03/16 07:43:11;;;;;;;5.63;4.90;;;11.40;99.90;;;;;;4928744;28;20337;-78
2024/03/16 07:45:41;;;;;;;4.77;4.37;;;11.30;99.90;;;;;;4949156;28;20607;-79
2024/03/16 07:48:08;;;;;;;4.70;4.40;;;11.30;99.90;;;;;;4938401;28;20228;-79
2024/03/16 07:50:36;;;;;;;4.77;4.50;;;11.40;99.90;;;;;;4933595;28;20207;-79
2024/03/16 07:53:03;;;;;;;5.00;4.70;;;11.40;99.90;;;;;;4932532;28;20221;-79
2024/03/16 07:55:30;;;;;;;4.70;4.40;;;11.40;99.90;;;;;;4955361;28;20245;-79
2024/03/16 07:57:57;;;;;;;4.37;4.13;;;11.50;99.90;;;;;;4923147;28;20225;-78
2024/03/16 08:00:24;;;;;;;4.50;4.20;;;11.50;99.90;;;;;;4948266;28;20214;-81
2024/03/16 08:02:51;;;;;;;4.93;4.50;;;11.50;99.90;;;;;;4920439;28;20223;-78
2024/03/16 08:05:19;;;;;;;5.03;4.63;;;11.60;99.90;;;;;;4938789;29;20582;-79
2024/03/16 08:07:47;;;;;;;5.00;4.60;;;11.60;99.90;;;;;;4939839;29;20209;-78
2024/03/16 08:10:14;;;;;;;4.57;4.27;;;11.70;99.90;;;;;;4922790;28;20231;-78
2024/03/16 08:12:41;;;;;;;4.70;4.40;;;11.90;99.90;;;;;;4944311;28;20218;-78
2024/03/16 08:15:08;;;;;;;4.67;4.13;;;12.00;99.90;;;;;;4922322;28;20572;-78
2024/03/16 08:17:35;;;;;;;4.63;4.23;;;12.30;99.90;;;;;;4934763;28;20210;-77
2024/03/16 08:20:03;;;;;;;3.50;3.17;;;12.60;99.90;;;;;;4944646;28;20204;-78
2024/03/16 08:22:30;;;;;;;4.43;4.13;;;12.90;99.90;;;;;;4939265;29;20222;-78
2024/03/16 08:24:57;;;;;;;5.80;4.10;;;13.10;99.90;;;;;;4967319;28;20633;-79
2024/03/16 08:27:24;;;;;;;2.83;2.63;;;13.10;99.90;;;;;;4940149;28;20218;-78
2024/03/16 08:29:51;;;;;;;4.50;3.00;;;13.20;99.90;;;;;;4947532;28;20194;-81
2024/03/16 08:32:18;;;;;;;10.97;10.17;;;13.40;99.90;;;;;;4944996;28;20235;-78
2024/03/16 08:34:45;;;;;;;3.83;3.13;;;14.00;99.90;;;;;;4938428;29;20210;-82
2024/03/16 08:37:12;;;;;;;3.90;2.90;;;14.40;99.90;;;;;;4944916;28;20397;-78
2024/03/16 08:39:38;;;;;;;6.80;6.40;;;14.40;99.90;;;;;;4947973;28;20240;-78
2024/03/16 08:42:06;;;;;;;5.80;5.33;;;14.40;99.90;;;;;;4941261;28;20260;-77
2024/03/16 08:44:34;;;;;;;7.67;6.97;;;14.10;99.90;;;;;;4948204;28;20630;-78
2024/03/16 08:47:01;;;;;;;3.00;2.70;;;14.00;99.90;;;;;;4945245;28;20204;-78
2024/03/16 08:49:28;;;;;;;2.93;2.60;;;13.90;99.90;;;;;;4936509;28;20262;-78
2024/03/16 08:51:57;;;;;;;3.20;3.00;;;13.80;99.90;;;;;;4947417;28;20298;-77
2024/03/16 08:54:24;;;;;;;2.97;2.67;;;13.70;99.90;;;;;;4929583;29;20221;-79
2024/03/16 08:56:52;;;;;;;3.60;2.60;;;13.60;99.90;;;;;;4953401;28;20579;-79
2024/03/16 08:59:19;;;;;;;7.70;7.20;;;13.50;99.90;;;;;;4954202;28;20196;-79
2024/03/16 09:01:46;;;;;;;9.07;8.40;;;13.30;99.90;;;;;;4957783;28;20243;-79
2024/03/16 09:04:14;;;;;;;6.33;5.77;;;13.30;99.90;;;;;;4947486;28;20224;-79
2024/03/16 09:06:41;;;;;;;3.40;3.10;;;13.40;99.90;;;;;;4927780;29;20224;-78
2024/03/16 09:09:10;;;;;;;3.70;3.10;;;13.60;99.90;;;;;;4949157;28;20628;-78
2024/03/16 09:11:38;;;;;;;3.00;2.80;;;13.80;99.90;;;;;;4943659;29;20225;-79
2024/03/16 09:14:06;;;;;;;4.83;4.43;;;13.90;99.90;;;;;;4965924;28;20196;-78
2024/03/16 09:16:34;;;;;;;7.23;6.70;;;13.90;99.90;;;;;;4937708;29;20659;-78
2024/03/16 09:19:02;;;;;;;7.17;6.67;;;13.90;99.90;;;;;;4946322;28;20209;-78
2024/03/16 09:21:29;;;;;;;6.83;6.43;;;14.00;99.90;;;;;;4930002;29;20316;-78
2024/03/16 09:23:56;;;;;;;6.83;6.33;;;14.00;99.90;;;;;;4966167;28;20205;-78
2024/03/16 09:26:22;;;;;;;6.90;6.20;;;13.80;99.90;;;;;;4921963;28;20282;-78
2024/03/16 09:28:51;;;;;;;6.50;6.00;;;13.80;99.90;;;;;;4944420;28;20197;-79
2024/03/16 09:31:18;;;;;;;6.97;6.30;;;13.80;99.90;;;;;;4945842;28;20310;-79
2024/03/16 09:33:44;;;;;;;5.97;5.47;;;13.60;99.90;;;;;;4927758;28;20262;-79
2024/03/16 09:36:11;;;;;;;7.00;6.50;;;13.50;99.90;;;;;;4938890;28;20615;-78
2024/03/16 09:38:38;;;;;;;7.20;6.70;;;13.20;99.90;;;;;;4945628;28;20207;-78
2024/03/16 09:41:06;;;;;;;7.80;7.30;;;12.90;99.90;;;;;;4951806;28;20345;-78
2024/03/16 09:43:34;;;;;;;7.70;7.00;;;12.70;99.90;;;;;;4940518;29;20671;-78
2024/03/16 09:46:01;;;;;;;7.50;6.90;;;12.60;99.90;;;;;;4943645;28;20223;-78
2024/03/16 09:48:28;;;;;;;7.30;6.80;;;12.30;99.90;;;;;;4938918;28;20571;-78
2024/03/16 09:50:56;;;;;;;7.63;6.93;;;12.10;99.90;;;;;;4935888;28;20268;-78
2024/03/16 09:53:26;;;;;;;8.23;7.60;;;11.90;99.90;;;;;;4924513;28;20587;-78
2024/03/16 09:55:54;;;;;;;7.90;7.40;;;11.80;99.90;;;;;;4937423;29;20195;-78
2024/03/16 09:58:22;;;;;;;8.17;7.73;;;11.70;99.90;;;;;;4937845;28;20194;-78
2024/03/16 10:00:48;;;;;;;8.77;8.07;;;11.90;99.90;;;;;;4953622;28;20199;-78
2024/03/16 10:03:16;;;;;;;8.40;7.80;;;12.10;99.90;;;;;;4929668;28;20202;-77
2024/03/16 10:05:43;;;;;;;7.20;6.80;;;12.30;99.90;;;;;;4946119;28;20311;-78
2024/03/16 10:08:10;;;;;;;6.87;6.40;;;12.60;99.90;;;;;;4945418;28;20218;-78
2024/03/16 10:10:38;;;;;;;7.17;6.73;;;12.70;99.90;;;;;;4950508;28;20205;-78
2024/03/16 10:13:06;;;;;;;6.90;6.50;;;13.00;99.90;;;;;;4936907;28;20716;-78
2024/03/16 10:15:41;;;;;;;6.80;6.40;;;13.20;99.90;;;;;;4948022;28;20198;-78
2024/03/16 10:18:10;;;;;;;6.90;6.50;;;13.60;99.90;;;;;;4938047;28;20217;-78
2024/03/16 10:20:37;;;;;;;6.43;6.10;;;13.90;99.90;;;;;;4941755;28;20193;-78
2024/03/16 10:23:04;;;;;;;6.30;5.90;;;14.20;99.90;;;;;;4946347;28;20711;-78
2024/03/16 10:25:31;;;;;;;6.90;6.40;;;14.50;99.90;;;;;;4964153;28;20222;-78
2024/03/16 10:27:58;;;;;;;5.07;4.83;;;14.70;99.90;;;;;;4939262;29;20327;-78
2024/03/16 10:30:25;;;;;;;7.60;7.00;;;15.10;99.90;;;;;;4932330;28;20254;-78
2024/03/16 10:32:53;;;;;;;9.10;8.60;;;15.60;99.90;;;;;;4959034;28;20224;-78
2024/03/16 10:35:25;;;;;;;2.90;2.67;;;15.60;99.90;;;;;;4949274;28;20206;-78
2024/03/16 10:37:52;;;;;;;4.63;4.23;;;15.50;99.90;;;;;;4963838;28;20198;-78
2024/03/16 10:40:19;;;;;;;6.73;6.13;;;15.30;99.90;;;;;;4949787;28;20206;-78
2024/03/16 10:42:46;;;;;;;4.60;4.30;;;15.30;99.90;;;;;;4955185;28;20237;-80
2024/03/16 10:45:17;;;;;;;5.70;4.90;;;15.10;99.90;;;;;;4958189;28;20212;-79
2024/03/16 10:47:45;;;;;;;4.87;4.47;;;14.90;99.90;;;;;;4956315;28;20261;-79
2024/03/16 10:50:12;;;;;;;2.67;2.40;;;14.80;99.90;;;;;;4927491;28;20214;-80
2024/03/16 10:52:41;;;;;;;2.87;2.50;;;14.70;99.90;;;;;;4946577;29;20322;-79
2024/03/16 10:55:09;;;;;;;2.40;2.30;;;14.70;99.90;;;;;;4948970;28;20288;-78
2024/03/16 10:57:37;;;;;;;2.50;2.40;;;14.70;99.90;;;;;;4955052;28;20249;-77
2024/03/16 11:00:12;;;;;;;2.50;2.40;;;14.70;99.90;;;;;;4943751;29;20545;-80
2024/03/16 11:02:49;;;;;;;2.60;2.40;;;14.60;99.90;;;;;;4952908;28;20217;-80
2024/03/16 11:05:33;;;;;;;2.30;2.20;;;14.40;99.90;;;;;;4945641;28;20731;-79
2024/03/16 11:08:00;;;;;;;2.30;2.20;;;14.30;99.90;;;;;;4936341;28;20272;-79
2024/03/16 11:10:40;;;;;;;2.20;2.10;;;14.40;99.90;;;;;;4926236;28;20221;-79
2024/03/16 11:13:19;;;;;;;2.67;2.50;;;14.40;99.90;;;;;;4945469;29;20656;-78
2024/03/16 11:15:46;;;;;;;3.10;2.90;;;14.40;99.90;;;;;;4930141;29;20201;-79
2024/03/16 11:18:37;;;;;;;2.83;2.70;;;14.40;99.90;;;;;;4939953;28;20209;-78
2024/03/16 11:21:04;;;;;;;8.50;8.00;;;14.30;99.90;;;;;;4937321;29;20225;-79
2024/03/16 11:23:31;;;;;;;8.17;7.67;;;14.20;99.90;;;;;;4943773;28;20460;-79
2024/03/16 11:25:58;;;;;;;8.03;7.63;;;14.00;99.90;;;;;;4933505;29;20272;-77
2024/03/16 11:28:25;;;;;;;8.23;7.73;;;13.80;99.90;;;;;;4952035;28;20206;-79
2024/03/16 11:30:51;;;;;;;8.10;7.60;;;13.80;99.90;;;;;;4953241;28;20193;-80
2024/03/16 11:33:18;;;;;;;8.53;8.00;;;13.80;99.90;;;;;;4931850;29;20647;-80
2024/03/16 11:35:44;;;;;;;7.73;7.33;;;13.90;99.90;;;;;;4948246;28;20234;-81
2024/03/16 11:38:11;;;;;;;8.30;7.70;;;14.00;99.90;;;;;;4963259;28;20250;-80
2024/03/16 11:40:38;;;;;;;8.20;7.73;;;14.00;99.90;;;;;;4951341;28;20212;-79
2024/03/16 11:43:08;;;;;;;7.10;6.70;;;14.00;99.90;;;;;;4965706;28;20221;-79
2024/03/16 11:45:39;;;;;;;6.90;6.50;;;13.90;99.90;;;;;;4927810;28;20208;-80
2024/03/16 11:48:07;;;;;;;6.33;6.03;;;13.80;99.90;;;;;;4949715;28;20202;-81
2024/03/16 11:50:33;;;;;;;7.30;6.80;;;14.00;99.90;;;;;;4940005;29;20279;-81
2024/03/16 11:53:02;;;;;;;7.40;7.00;;;14.40;99.90;;;;;;4967424;28;20223;-82
2024/03/16 11:55:29;;;;;;;7.10;6.70;;;14.70;99.90;;;;;;4933649;28;20206;-81
2024/03/16 11:57:57;;;;;;;6.40;6.10;;;14.90;99.90;;;;;;4951686;28;20192;-83
2024/03/16 12:00:23;;;;;;;7.43;7.03;;;14.90;99.90;;;;;;4968138;28;20207;-79
2024/03/16 12:02:50;;;;;;;6.43;6.13;;;14.90;99.90;;;;;;4923182;29;20274;-79
2024/03/16 12:05:16;;;;;;;6.70;6.40;;;15.10;99.90;;;;;;4938952;28;20206;-79
2024/03/16 12:07:46;;;;;;;6.70;6.40;;;15.30;99.90;;;;;;4926821;28;20261;-81
2024/03/16 12:10:14;;;;;;;7.47;7.03;;;15.40;99.90;;;;;;4944104;28;20205;-80
2024/03/16 12:12:41;;;;;;;8.40;8.00;;;15.50;99.90;;;;;;4952220;28;20246;-81
2024/03/16 12:15:10;;;;;;;5.53;5.23;;;15.50;99.90;;;;;;4927266;28;20672;-80
2024/03/16 12:17:37;;;;;;;7.77;7.27;;;15.30;99.90;;;;;;4922707;29;20190;-79
2024/03/16 12:20:09;;;;;;;7.50;7.10;;;15.30;99.90;;;;;;4936886;29;20213;-80
2024/03/16 12:22:41;;;;;;;6.90;6.60;;;15.30;99.90;;;;;;4928287;28;20218;-82
2024/03/16 12:25:07;;;;;;;5.10;4.90;;;15.30;99.90;;;;;;4936902;29;20278;-76
2024/03/16 12:27:34;;;;;;;4.93;4.73;;;15.40;99.90;;;;;;4948511;28;20337;-80
2024/03/16 12:30:05;;;;;;;5.10;4.80;;;15.30;99.90;;;;;;4932771;28;20202;-85
2024/03/16 12:32:33;;;;;;;6.57;6.27;;;15.20;99.90;;;;;;4919772;28;20241;-79
2024/03/16 12:35:02;;;;;;;7.60;7.20;;;15.20;99.90;;;;;;4954459;28;20565;-85
2024/03/16 12:37:29;;;;;;;7.67;7.27;;;15.20;99.90;;;;;;4923562;28;20201;-79
2024/03/16 12:39:55;;;;;;;7.70;7.30;;;15.30;99.90;;;;;;4933678;29;20206;-81
2024/03/16 12:42:22;;;;;;;7.50;7.10;;;15.50;99.90;;;;;;4920263;28;20281;-79
2024/03/16 12:44:48;;;;;;;6.63;6.33;;;15.60;99.90;;;;;;4929577;29;20587;-79